Map

Track Data

SID SEASON NUMBER BASIN SUBBASIN NAME ISO_TIME NATURE LAT LON WMO_WIND WMO_PRES WMO_AGENCY TRACK_TYPE DIST2LAND LANDFALL IFLAG USA_AGENCY USA_ATCF_ID USA_LAT USA_LON USA_RECORD USA_STATUS USA_WIND USA_PRES USA_SSHS USA_R34_NE USA_R34_SE USA_R34_SW USA_R34_NW USA_R50_NE USA_R50_SE USA_R50_SW USA_R50_NW USA_R64_NE USA_R64_SE USA_R64_SW USA_R64_NW USA_POCI USA_ROCI USA_RMW USA_EYE TOKYO_LAT TOKYO_LON TOKYO_GRADE TOKYO_WIND TOKYO_PRES TOKYO_R50_DIR TOKYO_R50_LONG TOKYO_R50_SHORT TOKYO_R30_DIR TOKYO_R30_LONG TOKYO_R30_SHORT TOKYO_LAND CMA_LAT CMA_LON CMA_CAT CMA_WIND CMA_PRES HKO_LAT HKO_LON HKO_CAT HKO_WIND HKO_PRES NEWDELHI_LAT NEWDELHI_LON NEWDELHI_GRADE NEWDELHI_WIND NEWDELHI_PRES NEWDELHI_CI NEWDELHI_DP NEWDELHI_POCI REUNION_LAT REUNION_LON REUNION_TYPE REUNION_WIND REUNION_PRES REUNION_TNUM REUNION_CI REUNION_RMW REUNION_R34_NE REUNION_R34_SE REUNION_R34_SW REUNION_R34_NW REUNION_R50_NE REUNION_R50_SE REUNION_R50_SW REUNION_R50_NW REUNION_R64_NE REUNION_R64_SE REUNION_R64_SW REUNION_R64_NW BOM_LAT BOM_LON BOM_TYPE BOM_WIND BOM_PRES BOM_TNUM BOM_CI BOM_RMW BOM_R34_NE BOM_R34_SE BOM_R34_SW BOM_R34_NW BOM_R50_NE BOM_R50_SE BOM_R50_SW BOM_R50_NW BOM_R64_NE BOM_R64_SE BOM_R64_SW BOM_R64_NW BOM_ROCI BOM_POCI BOM_EYE BOM_POS_METHOD BOM_PRES_METHOD NADI_LAT NADI_LON NADI_CAT NADI_WIND NADI_PRES WELLINGTON_LAT WELLINGTON_LON WELLINGTON_WIND WELLINGTON_PRES DS824_LAT DS824_LON DS824_STAGE DS824_WIND DS824_PRES TD9636_LAT TD9636_LON TD9636_STAGE TD9636_WIND TD9636_PRES TD9635_LAT TD9635_LON TD9635_WIND TD9635_PRES TD9635_ROCI NEUMANN_LAT NEUMANN_LON NEUMANN_CLASS NEUMANN_WIND NEUMANN_PRES MLC_LAT MLC_LON MLC_CLASS MLC_WIND MLC_PRES USA_GUST BOM_GUST BOM_GUST_PER REUNION_GUST REUNION_GUST_PER USA_SEAHGT USA_SEARAD_NE USA_SEARAD_SE USA_SEARAD_SW USA_SEARAD_NW STORM_SPEED STORM_DIR
1981054S12181 1981 14 SP MM NOT_NAMED 1981-02-22 12:00:00 NR -12.0000 180.500 30 997 wellington main 474 474 ________O_____ -1 -12.0000 -179.500 30 997 17 87
1981054S12181 1981 14 SP MM NOT_NAMED 1981-02-22 15:00:00 NR -11.9493 181.366 main 507 507 ________P_____ -1 -11.9493 -178.634 30 997 17 87
1981054S12181 1981 14 SP MM NOT_NAMED 1981-02-22 18:00:00 NR -11.8979 182.236 main 541 479 ________P_____ -1 -11.8979 -177.764 30 997 17 87
1981054S12181 1981 14 SP MM NOT_NAMED 1981-02-22 21:00:00 NR -11.8475 183.113 main 484 396 ________P_____ -1 -11.8475 -176.887 30 997 17 87
1981054S12181 1981 14 SP MM NOT_NAMED 1981-02-23 00:00:00 NR -11.8000 184.000 30 997 wellington main 396 313 ________O_____ -1 -11.8000 -176.000 30 997 18 87
1981054S12181 1981 14 SP MM NOT_NAMED 1981-02-23 03:00:00 NR -11.7623 184.905 main 313 243 ________P_____ -1 -11.7623 -175.095 31 996 18 89
1981054S12181 1981 14 SP MM NOT_NAMED 1981-02-23 06:00:00 NR -11.7618 185.854 main 236 195 ________P_____ -1 -11.7618 -174.146 32 996 19 92
1981054S12181 1981 14 SP MM NOT_NAMED 1981-02-23 09:00:00 NR -11.8304 186.875 main 193 169 ________P_____ -1 -11.8304 -173.125 33 995 21 96
1981054S12181 1981 14 SP MM NOT_NAMED 1981-02-23 12:00:00 NR -12.0000 188.000 35 995 wellington main 173 173 ________O_____ -1 -12.0000 -172.000 35 995 25 102
1981054S12181 1981 14 SP MM NOT_NAMED 1981-02-23 15:00:00 NR -12.3353 189.364 main 233 226 ________P_____ -1 -12.3353 -170.636 35 995 29 105
1981054S12181 1981 14 SP MM NOT_NAMED 1981-02-23 18:00:00 NR -12.7603 190.819 main 340 340 ________P_____ -1 -12.7603 -169.181 35 995 29 107
1981054S12181 1981 14 SP MM NOT_NAMED 1981-02-23 21:00:00 NR -13.2045 192.240 main 479 479 ________P_____ -1 -13.2045 -167.760 35 995 27 108
1981054S12181 1981 14 SP MM NOT_NAMED 1981-02-24 00:00:00 NR -13.6000 193.500 35 995 wellington main 616 616 ________O_____ -1 -13.6000 -166.500 35 995 23 107
1981054S12181 1981 14 SP MM NOT_NAMED 1981-02-24 03:00:00 NR -13.8703 194.492 main 723 723 ________P_____ -1 -13.8703 -165.508 35 995 18 106
1981054S12181 1981 14 SP MM NOT_NAMED 1981-02-24 06:00:00 NR -14.0861 195.301 main 810 810 ________P_____ -1 -14.0861 -164.699 35 995 15 105
1981054S12181 1981 14 SP MM NOT_NAMED 1981-02-24 09:00:00 NR -14.2590 195.960 main 886 886 ________P_____ -1 -14.2590 -164.040 35 995 12 105
1981054S12181 1981 14 SP MM NOT_NAMED 1981-02-24 12:00:00 NR -14.4000 196.500 35 995 wellington main 941 941 ________O_____ -1 -14.4000 -163.500 35 995 10 105
1981054S12181 1981 14 SP MM NOT_NAMED 1981-02-24 15:00:00 NR -14.5357 197.004 main 995 995 ________P_____ -1 -14.5357 -162.996 35 995 9 106
1981054S12181 1981 14 SP MM NOT_NAMED 1981-02-24 18:00:00 NR -14.6436 197.401 main 1039 1039 ________P_____ -1 -14.6436 -162.599 35 995 7 106
1981054S12181 1981 14 SP MM NOT_NAMED 1981-02-24 21:00:00 NR -14.7298 197.722 main 1072 1072 ________P_____ -1 -14.7298 -162.278 35 995 6 105
1981054S12181 1981 14 SP MM NOT_NAMED 1981-02-25 00:00:00 NR -14.8000 198.000 35 995 wellington main 1105 1105 ________O_____ -1 -14.8000 -162.000 35 995 6 100
1981054S12181 1981 14 SP MM NOT_NAMED 1981-02-25 03:00:00 NR -14.8317 198.307 main 1137 1137 ________P_____ -1 -14.8317 -161.693 35 995 6 96
1981054S12181 1981 14 SP MM NOT_NAMED 1981-02-25 06:00:00 NR -14.8548 198.575 main 1170 1170 ________P_____ -1 -14.8548 -161.425 35 995 5 98
1981054S12181 1981 14 SP MM NOT_NAMED 1981-02-25 09:00:00 NR -14.9005 198.807 main 1191 1191 ________P_____ -1 -14.9005 -161.193 35 995 4 109
1981054S12181 1981 14 SP MM NOT_NAMED 1981-02-25 12:00:00 NR -15.0000 199.000 35 995 wellington main 1214 1214 ________O_____ -1 -15.0000 -161.000 35 995 5 128
1981054S12181 1981 14 SP MM NOT_NAMED 1981-02-25 15:00:00 NR -15.2086 199.209 main 1237 1237 ________P_____ -1 -15.2086 -160.791 35 995 6 142
1981054S12181 1981 14 SP MM NOT_NAMED 1981-02-25 18:00:00 NR -15.4698 199.377 main 1262 1262 ________P_____ -1 -15.4698 -160.623 35 995 6 154
1981054S12181 1981 14 SP MM NOT_NAMED 1981-02-25 21:00:00 NR -15.7461 199.481 main 1276 1276 ________P_____ -1 -15.7461 -160.519 35 995 5 167
1981054S12181 1981 14 SP MM NOT_NAMED 1981-02-26 00:00:00 NR -16.0000 199.500 35 995 wellington main 1281 1272 ________O_____ -1 -16.0000 -160.500 35 995 4 188
1981054S12181 1981 14 SP MM NOT_NAMED 1981-02-26 03:00:00 NR -16.1828 199.424 main 1274 1266 ________P_____ -1 -16.1828 -160.576 36 993 4 214
1981054S12181 1981 14 SP MM NOT_NAMED 1981-02-26 06:00:00 NR -16.3375 199.263 main 1266 1247 ________P_____ -1 -16.3375 -160.737 37 992 5 231
1981054S12181 1981 14 SP MM NOT_NAMED 1981-02-26 09:00:00 NR -16.4734 199.045 main 1239 1221 ________P_____ -1 -16.4734 -160.955 38 991 5 239
1981054S12181 1981 14 SP MM NOT_NAMED 1981-02-26 12:00:00 NR -16.6000 198.800 40 990 wellington main 1221 1203 ________O_____ -1 -16.6000 -161.200 40 990 5 240
1981054S12181 1981 14 SP MM NOT_NAMED 1981-02-26 15:00:00 NR -16.7321 198.588 main 1203 1185 ________P_____ -1 -16.7321 -161.412 40 990 5 239
1981054S12181 1981 14 SP MM NOT_NAMED 1981-02-26 18:00:00 NR -16.8573 198.352 main 1188 1160 ________P_____ -1 -16.8573 -161.648 40 990 5 243
1981054S12181 1981 14 SP MM NOT_NAMED 1981-02-26 21:00:00 NR -16.9789 198.091 main 1160 1133 ________P_____ -1 -16.9789 -161.909 40 990 6 245
1981054S12181 1981 14 SP MM NOT_NAMED 1981-02-27 00:00:00 NR -17.1000 197.800 40 990 wellington main 1133 1106 ________O_____ -1 -17.1000 -162.200 40 990 6 247
1981054S12181 1981 14 SP MM NOT_NAMED 1981-02-27 03:00:00 NR -17.2291 197.479 main 1106 1074 ________P_____ -1 -17.2291 -162.521 40 990 7 248
1981054S12181 1981 14 SP MM NOT_NAMED 1981-02-27 06:00:00 NR -17.3575 197.130 main 1074 1048 ________P_____ -1 -17.3575 -162.870 40 990 7 250
1981054S12181 1981 14 SP MM NOT_NAMED 1981-02-27 09:00:00 NR -17.4822 196.766 main 1048 1014 ________P_____ -1 -17.4822 -163.234 40 990 7 251
1981054S12181 1981 14 SP MM NOT_NAMED 1981-02-27 12:00:00 NR -17.6000 196.400 40 990 wellington main 1014 985 ________O_____ -1 -17.6000 -163.600 40 990 7 257
1981054S12181 1981 14 SP MM NOT_NAMED 1981-02-27 15:00:00 NR -17.6422 196.033 main 975 951 ________P_____ -1 -17.6422 -163.967 38 991 7 263
1981054S12181 1981 14 SP MM NOT_NAMED 1981-02-27 18:00:00 NR -17.6876 195.669 main 951 918 ________P_____ -1 -17.6876 -164.331 37 992 7 258
1981054S12181 1981 14 SP MM NOT_NAMED 1981-02-27 21:00:00 NR -17.7891 195.320 main 918 902 ________P_____ -1 -17.7891 -164.680 36 993 7 244
1981054S12181 1981 14 SP MM NOT_NAMED 1981-02-28 00:00:00 NR -18.0000 195.000 35 995 wellington main 902 892 ________O_____ -1 -18.0000 -165.000 35 995 8 226
1981054S12181 1981 14 SP MM NOT_NAMED 1981-02-28 03:00:00 NR -18.3646 194.701 main 899 894 ________P_____ -1 -18.3646 -165.299 35 995 10 213
1981054S12181 1981 14 SP MM NOT_NAMED 1981-02-28 06:00:00 NR -18.8425 194.433 main 899 899 ________P_____ -1 -18.8425 -165.567 35 995 11 205
1981054S12181 1981 14 SP MM NOT_NAMED 1981-02-28 09:00:00 NR -19.3991 194.198 main 926 925 ________P_____ -1 -19.3991 -165.802 35 995 12 199
1981054S12181 1981 14 SP MM NOT_NAMED 1981-02-28 12:00:00 NR -20.0000 194.000 35 995 wellington main 957 957 ________O_____ -1 -20.0000 -166.000 35 995 12 191
1981054S12181 1981 14 SP MM NOT_NAMED 1981-02-28 15:00:00 NR -20.5670 193.956 main 1006 1006 ________P_____ -1 -20.5670 -166.044 33 995 12 183
1981054S12181 1981 14 SP MM NOT_NAMED 1981-02-28 18:00:00 NR -21.1719 193.929 main 1050 1050 ________P_____ -1 -21.1719 -166.071 32 996 13 186
1981054S12181 1981 14 SP MM NOT_NAMED 1981-02-28 21:00:00 NR -21.8159 193.813 main 1097 1097 ________P_____ -1 -21.8159 -166.187 31 996 14 197
1981054S12181 1981 14 SP MM NOT_NAMED 1981-03-01 00:00:00 NR -22.5000 193.500 30 997 wellington main 1144 1144 ________O_____ -1 -22.5000 -166.500 30 997 17 211
1981054S12181 1981 14 SP MM NOT_NAMED 1981-03-01 03:00:00 NR -23.2772 192.847 main 1185 1185 ________P_____ -1 -23.2772 -167.153 30 997 21 221
1981054S12181 1981 14 SP MM NOT_NAMED 1981-03-01 06:00:00 NR -24.0784 191.984 main 1233 1229 ________P_____ -1 -24.0784 -168.016 30 997 23 227
1981054S12181 1981 14 SP MM NOT_NAMED 1981-03-01 09:00:00 NR -24.8398 191.003 main 1275 1275 ________P_____ -1 -24.8398 -168.997 30 997 23 232
1981054S12181 1981 14 SP MM NOT_NAMED 1981-03-01 12:00:00 NR -25.5000 190.000 30 997 wellington main 1328 1326 ________O_____ -1 -25.5000 -170.000 30 997 21 237
1981054S12181 1981 14 SP MM NOT_NAMED 1981-03-01 15:00:00 NR -26.0041 189.041 main 1370 1339 ________P_____ -1 -26.0041 -170.959 30 997 19 242
1981054S12181 1981 14 SP MM NOT_NAMED 1981-03-01 18:00:00 NR -26.4018 188.098 main 1339 1304 ________P_____ -1 -26.4018 -171.902 30 997 18 246
1981054S12181 1981 14 SP MM NOT_NAMED 1981-03-01 21:00:00 NR -26.7234 187.230 main 1298 1274 ________P_____ -1 -26.7234 -172.770 30 997 15 247
1981054S12181 1981 14 SP MM NOT_NAMED 1981-03-02 00:00:00 NR -27.0000 186.500 30 997 wellington main 1276 1262 ________O_____ -1 -27.0000 -173.500 30 997 13 244
1981054S12181 1981 14 SP MM NOT_NAMED 1981-03-02 03:00:00 NR -27.2831 185.938 main 1265 1259 ________P_____ -1 -27.2831 -174.062 31 996 10 238
1981054S12181 1981 14 SP MM NOT_NAMED 1981-03-02 06:00:00 NR -27.5343 185.522 main 1260 1260 ________P_____ -1 -27.5343 -174.478 32 996 8 233
1981054S12181 1981 14 SP MM NOT_NAMED 1981-03-02 09:00:00 NR -27.7684 185.220 main 1263 1234 ________P_____ -1 -27.7684 -174.780 33 995 7 225
1981054S12181 1981 14 SP MM NOT_NAMED 1981-03-02 12:00:00 NR -28.0000 185.000 35 995 wellington main 1234 1201 ________O_____ -1 -28.0000 -175.000 35 995 6 225
1981054S12181 1981 14 SP MM NOT_NAMED 1981-03-02 15:00:00 NR -28.2086 184.723 main 1201 1172 ________P_____ -1 -28.2086 -175.277 36 993 6 225
1981054S12181 1981 14 SP MM NOT_NAMED 1981-03-02 18:00:00 NR -28.4238 184.527 main 1172 1138 ________P_____ -1 -28.4238 -175.473 37 992 5 208
1981054S12181 1981 14 SP MM NOT_NAMED 1981-03-02 21:00:00 NR -28.6772 184.443 main 1138 1112 ________P_____ -1 -28.6772 -175.557 38 991 6 0
1981054S12181 1981 14 SP MM NOT_NAMED 1981-03-03 00:00:00 NR -29.0000 184.500 40 990 wellington main 1112 1083 ________O_____ -1 -29.0000 -175.500 40 990 8 161
1981054S12181 1981 14 SP MM NOT_NAMED 1981-03-03 03:00:00 NR -29.4494 184.748 main 1083 1055 ________P_____ -1 -29.4494 -175.252 40 990 11 150
1981054S12181 1981 14 SP MM NOT_NAMED 1981-03-03 06:00:00 NR -29.9641 185.133 main 1046 1027 ________P_____ -1 -29.9641 -174.867 40 990 13 146
1981054S12181 1981 14 SP MM NOT_NAMED 1981-03-03 09:00:00 NR -30.4965 185.576 main 1027 1007 ________P_____ -1 -30.4965 -174.424 40 990 13 144
1981054S12181 1981 14 SP MM NOT_NAMED 1981-03-03 12:00:00 NR -31.0000 186.000 40 990 wellington main 1007 993 ________O_____ -1 -31.0000 -174.000 40 990 12 146
1981054S12181 1981 14 SP MM NOT_NAMED 1981-03-03 15:00:00 NR -31.4716 186.335 main 985 973 ________P_____ -1 -31.4716 -173.665 40 990 10 149
1981054S12181 1981 14 SP MM NOT_NAMED 1981-03-03 18:00:00 NR -31.8998 186.627 main 973 964 ________P_____ -1 -31.8998 -173.373 40 990 9 150
1981054S12181 1981 14 SP MM NOT_NAMED 1981-03-03 21:00:00 NR -32.2530 186.856 main 964 957 ________P_____ -1 -32.2530 -173.144 40 990 7 152
1981054S12181 1981 14 SP MM NOT_NAMED 1981-03-04 00:00:00 NR -32.5000 187.000 40 990 wellington main 957 949 ________O_____ -1 -32.5000 -173.000 40 990 4 156
1981054S12181 1981 14 SP MM NOT_NAMED 1981-03-04 03:00:00 NR -32.6480 187.062 main 957 942 ________P_____ -1 -32.6480 -172.938 40 990 2 170
1981054S12181 1981 14 SP MM NOT_NAMED 1981-03-04 06:00:00 NR -32.6869 187.037 main 942 942 ________P_____ -1 -32.6869 -172.963 40 990 1 279
1981054S12181 1981 14 SP MM NOT_NAMED 1981-03-04 09:00:00 NR -32.6325 186.943 main 942 935 ________P_____ -1 -32.6325 -173.057 40 990 3 314
1981054S12181 1981 14 SP MM NOT_NAMED 1981-03-04 12:00:00 NR -32.5000 186.800 40 990 wellington main 942 942 ________O_____ -1 -32.5000 -173.200 40 990 4 321
1981054S12181 1981 14 SP MM NOT_NAMED 1981-03-04 15:00:00 NR -32.3339 186.664 main 950 943 ________P_____ -1 -32.3339 -173.336 40 990 5 326
1981054S12181 1981 14 SP MM NOT_NAMED 1981-03-04 18:00:00 NR -32.0972 186.483 main 951 944 ________P_____ -1 -32.0972 -173.517 40 990 6 327
1981054S12181 1981 14 SP MM NOT_NAMED 1981-03-04 21:00:00 NR -31.8119 186.261 main 961 954 ________P_____ -1 -31.8119 -173.739 40 990 7 325
1981054S12181 1981 14 SP MM NOT_NAMED 1981-03-05 00:00:00 NR -31.5000 186.000 40 990 wellington main 965 965 ________O_____ -1 -31.5000 -174.000 40 990 8 322
1981054S12181 1981 14 SP MM NOT_NAMED 1981-03-05 03:00:00 NR -31.1969 185.698 main 972 972 ________P_____ -1 -31.1969 -174.302 40 990 8 319
1981054S12181 1981 14 SP MM NOT_NAMED 1981-03-05 06:00:00 NR -30.8730 185.364 main 980 974 ________P_____ -1 -30.8730 -174.636 40 990 9 319
1981054S12181 1981 14 SP MM NOT_NAMED 1981-03-05 09:00:00 NR -30.5375 185.023 main 994 989 ________P_____ -1 -30.5375 -174.977 40 990 9 320
1981054S12181 1981 14 SP MM NOT_NAMED 1981-03-05 12:00:00 NR -30.2000 184.700 40 990 wellington main 1006 1006 ________O_____ -1 -30.2000 -175.300 40 990 8 323
1981054S12181 1981 14 SP MM NOT_NAMED 1981-03-05 15:00:00 NR -29.8985 184.459 main 1025 1020 ________P_____ -1 -29.8985 -175.541 38 991 7 326
1981054S12181 1981 14 SP MM NOT_NAMED 1981-03-05 18:00:00 NR -29.5937 184.233 main 1040 1040 ________P_____ -1 -29.5937 -175.767 37 992 8 327
1981054S12181 1981 14 SP MM NOT_NAMED 1981-03-05 21:00:00 NR -29.2672 183.990 main 1061 1061 ________P_____ -1 -29.2672 -176.010 36 993 8 326
1981054S12181 1981 14 SP MM NOT_NAMED 1981-03-06 00:00:00 NR -28.9000 183.700 35 995 wellington main 1088 1088 ________O_____ -1 -28.9000 -176.300 35 995 10 326
1981054S12181 1981 14 SP MM NOT_NAMED 1981-03-06 03:00:00 NR -28.4316 183.336 main 1124 1124 ________P_____ -1 -28.4316 -176.664 33 995 12 325
1981054S12181 1981 14 SP MM NOT_NAMED 1981-03-06 06:00:00 NR -27.9274 182.923 main 1157 1118 ________P_____ -1 -27.9274 -177.077 32 996 13 323
1981054S12181 1981 14 SP MM NOT_NAMED 1981-03-06 09:00:00 NR -27.4345 182.474 main 1108 1047 ________P_____ -1 -27.4345 -177.526 31 996 12 319
1981054S12181 1981 14 SP MM NOT_NAMED 1981-03-06 12:00:00 NR -27.0000 182.000 30 997 wellington main 1047 998 ________O_____ -1 -27.0000 -178.000 30 997 12 312
1981054S12181 1981 14 SP MM NOT_NAMED 1981-03-06 15:00:00 NR -26.6588 181.512 main 998 950 ________P_____ -1 -26.6588 -178.488 30 997 11 304
1981054S12181 1981 14 SP MM NOT_NAMED 1981-03-06 18:00:00 NR -26.3964 181.013 main 950 914 ________P_____ -1 -26.3964 -178.987 30 997 10 298
1981054S12181 1981 14 SP MM NOT_NAMED 1981-03-06 21:00:00 NR -26.1857 180.508 main 914 880 ________P_____ -1 -26.1857 -179.492 30 997 10 294
1981054S12181 1981 14 SP MM NOT_NAMED 1981-03-07 00:00:00 NR -26.0000 180.000 30 997 wellington main 880 ________O_____ -1 -26.0000 180.000 30 997 10 292

Digital Typhoon Data and Search

About IBTrACS Database

This database is a web-friendly format of International Best Track Archive for Climate Stewardship (IBTrACS), a global best track data archive curated by NOAA dating back to 1842.

Updated: 2021-12-03